Time;durP1;ratioP1;P1;durP2;ratioP2;P2;SDS_P1;SDS_P2;PMS_P1;PMS_P2;Temp;Humidity;BMP_temperature;BMP_pressure;BME280_temperature;BME280_humidity;BME280_pressure;Samples;Min_cycle;Max_cycle;Signal;HPM_P1;HPM_P2
2022/03/24 00:00:43;;;;;;;14.20;9.57;;;21.70;33.70;;;;;;4895659;29;20424;-86
2022/03/24 00:10:44;;;;;;;12.60;9.50;;;21.60;33.70;;;;;;4876847;29;20894;-86
2022/03/24 00:14:04;;;;;;;15.67;9.10;;;21.60;33.90;;;;;;4840569;29;20444;-85
2022/03/24 00:27:16;;;;;;;13.03;9.60;;;21.50;34.10;;;;;;4839721;29;20468;-85
2022/03/24 00:33:08;;;;;;;13.13;9.30;;;21.40;34.20;;;;;;4854553;29;20458;-86
2022/03/24 00:35:50;;;;;;;12.37;9.23;;;21.40;34.10;;;;;;4873162;29;20956;-85
2022/03/24 00:38:35;;;;;;;12.53;9.20;;;21.40;34.10;;;;;;4875571;29;20441;-85
2022/03/24 00:41:14;;;;;;;12.13;9.43;;;21.40;34.30;;;;;;4876859;29;21137;-85
2022/03/24 00:44:12;;;;;;;;;;;;;;;;;;;;;
2022/03/24 00:47:22;;;;;;;15.90;10.63;;;21.30;34.20;;;;;;4877287;29;20473;-85
2022/03/24 00:56:35;;;;;;;13.43;9.47;;;21.20;34.30;;;;;;4876626;29;20477;-85
2022/03/24 01:02:09;;;;;;;11.43;9.40;;;21.20;34.40;;;;;;4950891;29;20439;-85
2022/03/24 01:04:49;;;;;;;15.83;11.03;;;21.10;34.30;;;;;;4988743;28;20480;-86
2022/03/24 01:07:20;;;;;;;12.10;9.33;;;21.10;34.50;;;;;;5012642;28;20483;-86
2022/03/24 01:10:29;;;;;;;14.90;9.50;;;21.00;34.30;;;;;;4996778;28;20445;-86
2022/03/24 01:21:07;;;;;;;;;;;;;;;;;;;;;
2022/03/24 01:27:25;;;;;;;11.43;9.13;;;20.90;34.70;;;;;;5028163;28;20551;-86
2022/03/24 01:30:09;;;;;;;14.30;9.90;;;20.80;34.70;;;;;;5012989;28;20463;-86
2022/03/24 01:35:53;;;;;;;14.20;9.97;;;20.80;34.80;;;;;;5009284;28;20444;-85
2022/03/24 01:38:49;;;;;;;14.87;10.00;;;20.80;34.90;;;;;;5012204;28;20440;-85
2022/03/24 01:41:55;;;;;;;12.20;9.90;;;20.70;34.80;;;;;;5012355;28;20456;-86
2022/03/24 02:07:27;;;;;;;11.10;9.00;;;20.50;35.20;;;;;;4944675;28;20491;-84
2022/03/24 02:10:28;;;;;;;16.50;9.70;;;20.40;35.30;;;;;;4973967;28;20536;-85
2022/03/24 04:53:41;;;;;;;17.20;12.07;;;18.90;37.20;;;;;;4895791;29;20497;-86
2022/03/24 05:07:44;;;;;;;16.57;11.57;;;18.70;37.20;;;;;;4880528;29;20471;-86
2022/03/24 05:10:27;;;;;;;16.87;11.50;;;18.70;37.40;;;;;;4880920;29;20461;-85
2022/03/24 05:13:19;;;;;;;14.53;10.90;;;18.70;37.50;;;;;;4879168;29;20511;-85
2022/03/24 05:16:21;;;;;;;12.10;9.87;;;18.70;37.40;;;;;;4890599;28;20446;-84
2022/03/24 05:29:12;;;;;;;16.33;11.43;;;18.60;37.50;;;;;;4964369;29;20490;-84
2022/03/24 05:45:07;;;;;;;16.67;11.70;;;18.50;37.60;;;;;;4933727;29;20659;-86
2022/03/24 05:48:15;;;;;;;17.90;11.57;;;18.50;37.40;;;;;;4919583;29;20459;-86
2022/03/24 05:54:29;;;;;;;16.30;12.17;;;18.50;37.70;;;;;;4990711;28;20944;-85
2022/03/24 05:57:40;;;;;;;18.13;11.73;;;18.40;37.70;;;;;;5013197;28;20536;-85
2022/03/24 06:00:37;;;;;;;17.20;11.30;;;18.50;37.70;;;;;;5006579;28;20447;-86
2022/03/24 06:03:19;;;;;;;16.40;11.50;;;18.50;37.60;;;;;;5014774;28;20451;-85
2022/03/24 06:08:51;;;;;;;16.53;11.90;;;18.40;37.50;;;;;;5092708;28;20483;-85
2022/03/24 06:15:31;;;;;;;14.97;11.20;;;18.50;37.80;;;;;;5073875;28;20524;-85
2022/03/24 06:29:01;;;;;;;14.77;10.80;;;18.50;37.60;;;;;;5002504;28;20438;-86
2022/03/24 06:31:58;;;;;;;18.60;12.03;;;18.50;37.70;;;;;;5014862;28;20450;-86
2022/03/24 06:34:50;;;;;;;14.10;11.30;;;18.50;37.60;;;;;;5013612;28;20432;-84
2022/03/24 06:37:50;;;;;;;15.33;12.03;;;18.60;37.60;;;;;;5014752;28;20471;-84
2022/03/24 06:40:55;;;;;;;18.33;12.40;;;18.60;37.50;;;;;;5015550;28;20527;-84
2022/03/24 06:44:05;;;;;;;15.77;11.73;;;18.70;37.60;;;;;;5029336;28;20467;-84
2022/03/24 06:49:55;;;;;;;16.07;11.33;;;18.90;37.40;;;;;;5045230;28;20466;-85
2022/03/24 07:04:47;;;;;;;15.00;11.40;;;19.30;37.20;;;;;;4872036;28;20521;-85
2022/03/24 07:18:40;;;;;;;14.13;10.80;;;19.50;37.20;;;;;;4938104;28;20442;-86
2022/03/24 07:21:46;;;;;;;12.83;10.80;;;19.60;37.00;;;;;;4993818;28;20445;-85
2022/03/24 07:28:33;;;;;;;;;;;;;;;;;;;;;
2022/03/24 07:32:16;;;;;;;15.20;11.10;;;19.60;37.20;;;;;;5005289;28;20469;-85
2022/03/24 07:39:17;;;;;;;13.50;11.13;;;19.70;37.20;;;;;;4901196;29;20435;-85
2022/03/24 07:46:42;;;;;;;12.60;10.50;;;19.80;37.30;;;;;;4876582;29;20481;-84
2022/03/24 08:00:43;;;;;;;13.30;10.37;;;19.70;37.70;;;;;;4866557;29;20443;-85
2022/03/24 08:04:07;;;;;;;15.00;10.57;;;19.80;37.70;;;;;;4879914;29;20516;-84
2022/03/24 08:10:57;;;;;;;12.50;10.03;;;19.80;37.80;;;;;;4838180;29;20440;-85
2022/03/24 08:17:01;;;;;;;14.53;10.50;;;19.90;37.90;;;;;;4830468;29;20465;-85
2022/03/24 08:30:45;;;;;;;;;;;;;;;;;;;;;
2022/03/24 08:33:52;;;;;;;13.37;9.97;;;20.70;37.70;;;;;;5008668;28;20452;-87
2022/03/24 09:14:32;;;;;;;10.80;9.50;;;23.90;36.50;;;;;;5022669;28;20443;-87
2022/03/24 09:18:18;;;;;;;10.60;9.30;;;24.10;36.50;;;;;;5081725;28;20444;-86
2022/03/24 09:22:24;;;;;;;10.37;8.77;;;24.50;36.00;;;;;;5086881;28;20410;-87
2022/03/24 09:33:15;;;;;;;10.07;8.63;;;25.40;35.20;;;;;;5082926;28;20470;-86
2022/03/24 09:39:54;;;;;;;9.13;8.20;;;26.00;34.70;;;;;;4967804;28;20432;-86
2022/03/24 09:43:00;;;;;;;9.73;8.60;;;26.20;34.40;;;;;;5015634;28;20436;-86
2022/03/24 09:45:48;;;;;;;12.80;9.57;;;26.60;34.10;;;;;;5028964;28;20521;-87
2022/03/24 09:52:35;;;;;;;10.03;8.20;;;27.10;33.50;;;;;;4932711;28;20436;-87
2022/03/24 09:55:39;;;;;;;9.10;7.90;;;27.40;33.20;;;;;;4954705;28;20438;-87
2022/03/24 09:58:35;;;;;;;9.13;7.80;;;27.70;33.00;;;;;;4973119;28;20457;-87
2022/03/24 10:05:00;;;;;;;11.90;8.30;;;28.20;32.60;;;;;;5016192;28;20951;-87
2022/03/24 10:08:13;;;;;;;10.60;7.63;;;28.50;32.30;;;;;;5064625;28;20441;-86
2022/03/24 10:10:49;;;;;;;8.37;7.60;;;28.80;32.00;;;;;;5073264;28;20424;-87
2022/03/24 10:13:56;;;;;;;8.63;7.87;;;29.00;31.70;;;;;;5068060;28;20419;-85
2022/03/24 10:16:52;;;;;;;7.40;6.80;;;29.20;31.50;;;;;;5073421;28;21014;-87
2022/03/24 10:31:56;;;;;;;9.87;7.27;;;30.30;30.80;;;;;;4955798;28;20454;-85
2022/03/24 10:54:24;;;;;;;8.97;6.67;;;32.00;29.20;;;;;;5005069;28;20509;-87
2022/03/24 10:57:21;;;;;;;7.33;6.60;;;32.30;29.10;;;;;;5011234;28;20489;-85
2022/03/24 11:00:03;;;;;;;8.70;6.93;;;32.60;28.80;;;;;;4990331;28;20438;-86
2022/03/24 11:02:44;;;;;;;7.80;6.70;;;32.80;28.60;;;;;;5052740;28;20460;-86
2022/03/24 11:05:16;;;;;;;7.40;6.80;;;33.00;28.30;;;;;;5057232;28;20827;-86
2022/03/24 11:07:54;;;;;;;8.37;7.40;;;33.20;28.20;;;;;;5053130;28;20474;-87
2022/03/24 11:10:24;;;;;;;7.20;6.50;;;33.30;28.00;;;;;;5046762;28;20496;-87
2022/03/24 11:12:54;;;;;;;7.63;6.60;;;33.60;27.80;;;;;;5053393;28;20454;-86
2022/03/24 11:15:26;;;;;;;9.87;7.40;;;33.80;27.80;;;;;;5046592;28;20439;-86
2022/03/24 11:17:57;;;;;;;8.80;6.57;;;34.10;27.60;;;;;;5054225;28;20461;-87
2022/03/24 11:23:57;;;;;;;6.63;6.03;;;34.80;27.00;;;;;;5033843;28;20435;-87
2022/03/24 11:26:30;;;;;;;9.60;6.30;;;35.70;26.30;;;;;;5050753;28;20473;-86
2022/03/24 11:29:03;;;;;;;8.07;5.73;;;36.30;26.00;;;;;;5051561;28;20451;-86
2022/03/24 11:31:45;;;;;;;10.43;6.73;;;37.00;25.30;;;;;;5052188;28;20591;-86
2022/03/24 11:37:45;;;;;;;5.57;5.13;;;38.20;24.40;;;;;;5051785;28;20492;-87
2022/03/24 11:40:44;;;;;;;5.40;4.90;;;38.70;23.90;;;;;;5043309;28;20438;-86
2022/03/24 11:43:19;;;;;;;6.83;4.80;;;39.60;23.30;;;;;;5050662;28;20668;-86
2022/03/24 11:46:03;;;;;;;9.13;5.30;;;40.60;22.40;;;;;;5053800;28;20525;-85
2022/03/24 11:48:54;;;;;;;7.07;4.67;;;41.50;21.80;;;;;;5064946;28;20457;-84
2022/03/24 11:51:27;;;;;;;15.13;4.50;;;42.20;21.20;;;;;;5075398;28;20510;-85
2022/03/24 11:54:09;;;;;;;4.50;4.10;;;43.00;20.70;;;;;;5075088;28;20484;-85
2022/03/24 11:56:49;;;;;;;4.20;3.90;;;43.50;20.50;;;;;;5075420;28;20473;-84
2022/03/24 11:59:54;;;;;;;5.03;3.70;;;44.40;19.70;;;;;;5059965;28;20522;-85
2022/03/24 12:02:53;;;;;;;4.03;3.73;;;44.70;19.60;;;;;;5050095;28;20442;-85
2022/03/24 12:05:53;;;;;;;4.13;3.83;;;45.40;19.30;;;;;;5049519;28;20532;-85
2022/03/24 12:43:15;;;;;;;3.08;2.97;;;48.20;17.20;;;;;;4918462;29;20294;-84
2022/03/24 13:23:33;;;;;;;2.92;2.83;;;47.50;17.20;;;;;;4932114;29;20220;-84
2022/03/24 13:50:28;;;;;;;4.23;3.93;;;44.60;18.80;;;;;;4736353;30;20487;-84
2022/03/24 13:53:30;;;;;;;3.93;3.63;;;44.20;19.00;;;;;;4810249;29;20467;-85
2022/03/24 13:56:14;;;;;;;3.60;3.40;;;44.00;19.20;;;;;;4814678;29;20483;-84
2022/03/24 13:58:48;;;;;;;3.93;3.73;;;43.70;19.30;;;;;;4904604;29;20457;-84
2022/03/24 14:01:33;;;;;;;4.17;3.87;;;43.60;19.50;;;;;;4905441;29;20462;-84
2022/03/24 14:04:30;;;;;;;4.20;3.90;;;43.40;19.60;;;;;;4904479;29;20457;-83
2022/03/24 14:07:08;;;;;;;7.17;3.90;;;42.80;19.90;;;;;;4903669;29;20470;-84
2022/03/24 14:10:33;;;;;;;3.40;3.30;;;43.40;19.80;;;;;;4902406;29;20452;-84
2022/03/24 14:13:13;;;;;;;4.23;4.03;;;44.00;19.30;;;;;;4898220;29;20491;-84
2022/03/24 14:19:18;;;;;;;3.90;3.57;;;44.60;18.90;;;;;;4989998;28;20571;-84
2022/03/24 14:25:41;;;;;;;3.10;2.90;;;44.90;18.80;;;;;;4983032;28;20444;-82
2022/03/24 14:28:37;;;;;;;3.10;2.90;;;44.90;18.60;;;;;;5011207;28;20459;-83
2022/03/24 14:31:38;;;;;;;3.60;3.40;;;45.00;18.50;;;;;;5014510;28;20507;-83
2022/03/24 14:34:16;;;;;;;3.33;3.13;;;45.10;18.50;;;;;;5015105;28;20448;-82
2022/03/24 14:36:51;;;;;;;3.87;3.33;;;45.10;18.40;;;;;;5014940;28;22434;-82
2022/03/24 14:39:27;;;;;;;3.43;3.33;;;45.10;18.50;;;;;;5011592;28;20452;-82
2022/03/24 14:41:55;;;;;;;3.08;2.97;;;44.90;18.40;;;;;;5019284;28;20455;-82
2022/03/24 14:44:24;;;;;;;3.40;3.10;;;44.90;18.50;;;;;;5011791;28;20437;-82
2022/03/24 14:46:56;;;;;;;3.10;3.00;;;44.90;18.40;;;;;;5015539;28;20578;-83
2022/03/24 14:49:25;;;;;;;3.60;3.40;;;44.90;18.50;;;;;;5013989;28;20474;-83
2022/03/24 14:51:54;;;;;;;3.23;3.13;;;44.30;18.30;;;;;;5015548;28;20447;-82
2022/03/24 14:54:22;;;;;;;3.60;3.33;;;43.20;19.00;;;;;;5013296;28;20546;-82
2022/03/24 14:56:53;;;;;;;3.53;2.90;;;43.20;19.30;;;;;;5013889;28;21005;-83
2022/03/24 14:59:21;;;;;;;3.40;3.23;;;42.90;19.40;;;;;;5014557;28;20978;-83
2022/03/24 15:01:50;;;;;;;3.97;3.67;;;42.80;19.50;;;;;;5011052;28;20472;-82
2022/03/24 15:04:19;;;;;;;4.27;3.97;;;41.70;19.80;;;;;;5010449;28;21145;-83
2022/03/24 15:06:47;;;;;;;5.57;4.13;;;40.70;20.50;;;;;;5008795;28;20476;-82
2022/03/24 15:09:16;;;;;;;4.60;4.03;;;39.80;21.10;;;;;;5013161;28;20445;-82
2022/03/24 15:11:49;;;;;;;3.97;3.77;;;39.10;21.70;;;;;;5021410;28;20444;-81
2022/03/24 15:17:35;;;;;;;7.33;4.63;;;38.50;22.40;;;;;;5021595;28;20894;-83
2022/03/24 15:20:31;;;;;;;5.00;4.50;;;38.70;22.20;;;;;;4999009;28;20442;-83
2022/03/24 15:23:07;;;;;;;4.43;4.03;;;38.90;22.00;;;;;;5016427;28;20460;-83
2022/03/24 15:25:39;;;;;;;5.70;4.43;;;38.70;22.20;;;;;;5004578;28;20448;-83
2022/03/24 15:28:18;;;;;;;4.97;4.30;;;38.80;22.00;;;;;;5013929;28;20486;-82
2022/03/24 15:30:54;;;;;;;5.77;4.40;;;38.80;22.00;;;;;;5020097;28;20447;-81
2022/03/24 15:33:22;;;;;;;4.27;3.97;;;38.60;22.10;;;;;;5017167;28;20441;-81
2022/03/24 15:35:55;;;;;;;9.27;4.20;;;38.60;22.00;;;;;;5016726;28;20450;-82
2022/03/24 15:38:24;;;;;;;4.93;4.43;;;38.50;22.10;;;;;;5016838;28;20599;-82
2022/03/24 15:40:54;;;;;;;5.30;4.27;;;38.40;22.20;;;;;;5017554;28;20452;-81
2022/03/24 15:43:35;;;;;;;4.50;4.20;;;38.00;22.30;;;;;;5017840;28;20433;-82
2022/03/24 15:46:31;;;;;;;4.93;4.40;;;37.40;22.70;;;;;;5019926;28;20470;-82
2022/03/24 15:48:59;;;;;;;5.30;4.80;;;36.90;23.20;;;;;;5017286;28;20448;-82
2022/03/24 15:51:27;;;;;;;5.07;4.60;;;36.50;23.40;;;;;;5019099;28;20487;-83
2022/03/24 15:53:56;;;;;;;4.93;4.53;;;36.20;23.70;;;;;;5015054;28;20455;-80
2022/03/24 15:56:25;;;;;;;4.47;4.17;;;35.90;24.00;;;;;;5018065;28;20476;-82
2022/03/24 15:58:58;;;;;;;9.87;4.30;;;35.60;24.10;;;;;;5019890;28;20476;-82
2022/03/24 16:01:28;;;;;;;6.60;4.77;;;35.30;24.40;;;;;;5019373;28;20503;-82
2022/03/24 16:03:57;;;;;;;6.20;4.70;;;35.10;24.60;;;;;;5017486;28;20444;-82
2022/03/24 16:06:25;;;;;;;5.33;4.93;;;34.90;24.80;;;;;;4999242;28;20500;-82
2022/03/24 16:08:53;;;;;;;8.93;5.20;;;34.60;25.00;;;;;;4998677;28;20469;-82
2022/03/24 16:11:22;;;;;;;5.27;4.80;;;34.30;25.10;;;;;;4999150;28;20440;-82
2022/03/24 16:13:49;;;;;;;6.60;4.83;;;34.10;25.30;;;;;;5013716;28;20615;-83
2022/03/24 16:16:19;;;;;;;6.77;5.13;;;33.90;25.40;;;;;;5017810;28;20464;-82
2022/03/24 16:18:49;;;;;;;5.93;5.00;;;33.80;25.60;;;;;;5018707;28;20504;-82
2022/03/24 16:21:17;;;;;;;5.10;4.70;;;33.60;25.60;;;;;;5016364;28;20477;-82
2022/03/24 16:23:45;;;;;;;5.97;5.40;;;33.50;25.70;;;;;;4998596;28;20469;-82
2022/03/24 16:26:13;;;;;;;7.07;5.47;;;33.30;25.80;;;;;;4998428;28;20553;-82
2022/03/24 16:28:42;;;;;;;5.07;4.73;;;33.20;26.00;;;;;;4999593;28;20794;-81
2022/03/24 16:31:11;;;;;;;6.83;5.27;;;33.00;26.10;;;;;;5022950;28;20953;-81
2022/03/24 16:33:40;;;;;;;6.90;5.67;;;32.90;26.20;;;;;;5016597;28;20447;-81
2022/03/24 16:36:09;;;;;;;5.93;5.20;;;32.70;26.30;;;;;;5008278;28;20475;-81
2022/03/24 16:38:37;;;;;;;6.93;5.40;;;32.60;26.50;;;;;;4997880;28;20476;-82
2022/03/24 16:41:07;;;;;;;7.57;5.57;;;32.50;26.70;;;;;;4998895;28;20478;-82
2022/03/24 16:43:35;;;;;;;5.80;5.23;;;32.30;26.70;;;;;;4997131;28;20437;-81
2022/03/24 16:46:06;;;;;;;7.07;5.20;;;32.20;26.80;;;;;;5001326;28;20477;-81
2022/03/24 16:48:35;;;;;;;6.40;5.10;;;32.10;26.90;;;;;;5018659;28;20480;-80
2022/03/24 16:51:04;;;;;;;7.27;5.47;;;32.00;27.00;;;;;;5023150;28;20455;-81
2022/03/24 16:53:34;;;;;;;6.90;6.20;;;31.90;27.20;;;;;;5010531;28;20453;-80
2022/03/24 16:56:04;;;;;;;6.30;5.67;;;31.70;27.20;;;;;;5002966;28;20552;-80
2022/03/24 16:58:35;;;;;;;7.27;5.57;;;31.70;27.40;;;;;;5003675;28;20528;-81
2022/03/24 17:01:04;;;;;;;6.60;5.17;;;31.50;27.50;;;;;;5006172;28;20488;-81
2022/03/24 17:03:33;;;;;;;7.70;5.93;;;31.40;27.60;;;;;;5026951;28;20452;-80
2022/03/24 17:06:01;;;;;;;7.37;5.33;;;31.30;27.70;;;;;;5022800;28;20529;-81
2022/03/24 17:08:29;;;;;;;5.80;5.30;;;31.20;27.80;;;;;;5024796;28;20496;-80
2022/03/24 17:11:01;;;;;;;7.77;5.83;;;31.10;27.90;;;;;;5020165;28;20433;-82
2022/03/24 17:13:29;;;;;;;6.43;5.83;;;30.90;28.00;;;;;;5018624;28;20448;-81
2022/03/24 17:15:58;;;;;;;7.07;5.70;;;30.90;28.10;;;;;;5020466;28;21146;-81
2022/03/24 17:18:29;;;;;;;6.37;5.50;;;30.80;28.20;;;;;;5020257;28;20472;-81
2022/03/24 17:20:58;;;;;;;6.87;5.17;;;30.70;28.30;;;;;;5020789;28;20452;-82
2022/03/24 17:23:28;;;;;;;5.93;5.33;;;30.60;28.40;;;;;;5018359;28;20476;-81
2022/03/24 17:25:57;;;;;;;10.53;6.00;;;30.50;28.50;;;;;;5020385;28;20511;-82
2022/03/24 17:28:26;;;;;;;7.63;5.70;;;30.40;28.50;;;;;;5019942;28;20483;-81
2022/03/24 17:30:54;;;;;;;5.90;5.37;;;30.20;28.60;;;;;;5004172;28;20503;-82
2022/03/24 17:33:24;;;;;;;7.10;6.40;;;30.20;28.70;;;;;;5020310;28;20473;-82
2022/03/24 17:35:53;;;;;;;10.37;5.80;;;30.10;28.70;;;;;;5024117;28;20455;-81
2022/03/24 17:38:24;;;;;;;6.67;5.53;;;30.00;28.80;;;;;;5014135;28;20471;-81
2022/03/24 17:40:52;;;;;;;10.00;5.57;;;29.90;28.80;;;;;;5002691;28;20457;-80
2022/03/24 17:43:20;;;;;;;6.40;5.53;;;29.80;28.90;;;;;;5007018;28;20449;-81
2022/03/24 17:45:50;;;;;;;7.97;5.90;;;29.70;29.10;;;;;;5007880;28;20449;-81
2022/03/24 17:48:18;;;;;;;12.50;5.53;;;29.60;29.20;;;;;;5031038;28;20448;-81
2022/03/24 17:50:47;;;;;;;7.60;5.20;;;29.50;29.20;;;;;;5025480;28;20457;-81
2022/03/24 17:53:15;;;;;;;5.83;5.23;;;29.40;29.40;;;;;;5008736;28;20453;-81
2022/03/24 17:55:44;;;;;;;7.10;5.67;;;29.40;29.60;;;;;;5010586;28;20475;-82
2022/03/24 17:58:12;;;;;;;7.10;5.50;;;29.30;29.70;;;;;;5014591;28;20420;-82
2022/03/24 18:00:40;;;;;;;5.47;5.00;;;29.20;29.80;;;;;;5000106;28;20470;-82
2022/03/24 18:03:10;;;;;;;9.10;5.20;;;29.10;29.90;;;;;;5003803;28;20428;-82
2022/03/24 18:05:38;;;;;;;5.47;4.67;;;29.00;30.00;;;;;;5018642;28;20453;-82
2022/03/24 18:08:08;;;;;;;5.80;5.30;;;28.90;30.10;;;;;;5018094;28;20991;-81
2022/03/24 18:10:37;;;;;;;6.20;5.60;;;28.80;30.30;;;;;;5030738;28;20468;-81
2022/03/24 18:13:05;;;;;;;6.87;5.50;;;28.70;30.30;;;;;;5002591;28;20438;-82
2022/03/24 18:15:33;;;;;;;7.37;5.90;;;28.70;30.40;;;;;;5001700;28;20478;-80
2022/03/24 18:18:03;;;;;;;6.23;5.63;;;28.50;30.50;;;;;;5002565;28;20465;-82
2022/03/24 18:20:33;;;;;;;7.53;5.93;;;28.40;30.70;;;;;;5004670;28;20458;-81
2022/03/24 18:23:02;;;;;;;6.33;5.73;;;28.40;30.90;;;;;;5018216;28;20510;-81
2022/03/24 18:25:30;;;;;;;10.57;5.40;;;28.30;31.10;;;;;;5008784;28;20523;-81
2022/03/24 18:28:00;;;;;;;7.33;5.83;;;28.20;31.30;;;;;;5019446;28;20536;-81
2022/03/24 18:30:30;;;;;;;6.73;5.40;;;28.00;31.30;;;;;;5010723;28;20453;-80
2022/03/24 18:32:58;;;;;;;7.23;5.90;;;28.00;31.60;;;;;;5005577;28;20445;-81
2022/03/24 18:35:26;;;;;;;7.43;5.83;;;27.90;31.60;;;;;;5008839;28;20447;-81
2022/03/24 18:37:55;;;;;;;6.37;5.77;;;27.80;31.80;;;;;;5004713;28;20597;-81
2022/03/24 18:40:25;;;;;;;7.30;5.70;;;27.80;32.00;;;;;;5008838;28;20480;-81
2022/03/24 18:42:53;;;;;;;5.77;5.27;;;27.60;31.90;;;;;;5017371;28;20456;-82
2022/03/24 18:45:22;;;;;;;6.20;5.60;;;27.60;32.10;;;;;;5031526;28;20423;-81
2022/03/24 18:47:50;;;;;;;6.63;5.90;;;27.50;32.20;;;;;;5017534;28;20443;-82
2022/03/24 18:50:18;;;;;;;6.57;5.67;;;27.40;32.30;;;;;;5014525;28;20424;-81
2022/03/24 18:52:48;;;;;;;9.03;5.80;;;27.30;32.40;;;;;;4998603;28;20452;-81
2022/03/24 18:55:21;;;;;;;6.17;5.57;;;27.30;32.60;;;;;;5003279;28;20453;-82
2022/03/24 18:57:49;;;;;;;7.83;5.40;;;27.20;32.70;;;;;;5017364;28;20922;-81
2022/03/24 19:00:18;;;;;;;6.20;5.60;;;27.10;32.80;;;;;;5016456;28;20472;-81
2022/03/24 19:02:46;;;;;;;7.30;6.33;;;27.00;32.90;;;;;;5016166;28;20420;-81
2022/03/24 19:05:14;;;;;;;8.37;6.43;;;27.00;32.90;;;;;;4993693;28;20455;-81
2022/03/24 19:07:42;;;;;;;7.20;6.50;;;26.90;33.00;;;;;;4998334;28;20527;-82
2022/03/24 19:10:11;;;;;;;10.33;5.33;;;26.80;33.10;;;;;;4997261;28;20449;-81
2022/03/24 19:12:40;;;;;;;6.93;6.23;;;26.80;33.20;;;;;;4999512;28;20420;-82
2022/03/24 19:15:09;;;;;;;7.20;6.50;;;26.70;33.30;;;;;;4997742;28;20481;-82
2022/03/24 19:17:37;;;;;;;7.53;6.17;;;26.60;33.30;;;;;;5009734;28;20454;-82
2022/03/24 19:20:07;;;;;;;7.20;5.97;;;26.60;33.40;;;;;;5007171;28;20443;-81
2022/03/24 19:22:35;;;;;;;6.93;6.23;;;26.50;33.40;;;;;;4998709;28;20492;-81
2022/03/24 19:25:04;;;;;;;6.97;6.10;;;26.40;33.40;;;;;;4998101;28;20458;-81
2022/03/24 19:27:32;;;;;;;11.43;6.40;;;26.40;33.60;;;;;;5016531;28;20447;-81
2022/03/24 19:30:02;;;;;;;8.47;6.50;;;26.30;33.50;;;;;;5016799;28;20548;-81
2022/03/24 19:32:30;;;;;;;8.97;6.40;;;26.20;33.60;;;;;;5016747;28;20452;-82
2022/03/24 19:34:58;;;;;;;7.73;6.20;;;26.20;33.60;;;;;;5014240;28;20501;-81
2022/03/24 19:37:26;;;;;;;8.53;7.10;;;26.10;33.60;;;;;;5007327;28;20497;-81
2022/03/24 19:39:54;;;;;;;8.17;7.27;;;26.10;33.70;;;;;;4997672;28;20474;-80
2022/03/24 19:42:26;;;;;;;9.90;7.73;;;26.00;33.70;;;;;;5007403;28;20439;-81
2022/03/24 19:44:54;;;;;;;8.27;7.47;;;26.00;33.60;;;;;;5016395;28;20427;-80
2022/03/24 19:47:23;;;;;;;7.87;7.07;;;25.90;33.70;;;;;;5016667;28;20567;-81
2022/03/24 19:49:52;;;;;;;7.57;6.70;;;25.90;33.80;;;;;;5014744;28;20484;-81
2022/03/24 19:52:20;;;;;;;8.50;6.63;;;25.80;33.80;;;;;;5006237;28;20500;-81
2022/03/24 19:54:48;;;;;;;7.40;6.63;;;25.80;33.90;;;;;;5012983;28;20454;-81
2022/03/24 19:57:17;;;;;;;7.97;7.20;;;25.70;34.00;;;;;;5016495;28;20460;-81
2022/03/24 19:59:45;;;;;;;7.90;7.10;;;25.60;34.00;;;;;;5012362;28;21010;-81
2022/03/24 20:02:14;;;;;;;12.00;8.40;;;25.60;34.00;;;;;;4997566;28;20428;-82
2022/03/24 20:04:44;;;;;;;10.00;7.90;;;25.60;34.10;;;;;;4997326;28;20513;-80
2022/03/24 20:07:12;;;;;;;9.53;7.57;;;25.50;34.20;;;;;;5004428;28;20481;-81
2022/03/24 20:09:42;;;;;;;10.07;8.40;;;25.40;34.10;;;;;;5023322;28;20434;-83
2022/03/24 20:12:11;;;;;;;12.27;9.03;;;25.40;34.10;;;;;;5017779;28;20441;-83
2022/03/24 20:14:45;;;;;;;10.03;8.33;;;25.40;34.10;;;;;;5017095;28;20439;-84
2022/03/24 20:17:14;;;;;;;11.70;9.20;;;25.30;34.10;;;;;;5019127;28;20559;-83
2022/03/24 20:19:44;;;;;;;13.90;9.63;;;25.20;34.30;;;;;;5021239;28;20452;-83
2022/03/24 20:22:33;;;;;;;14.60;8.53;;;25.20;34.20;;;;;;5019320;28;20403;-84
2022/03/24 20:25:02;;;;;;;14.63;10.27;;;25.20;34.30;;;;;;5007668;28;20455;-84
2022/03/24 20:27:34;;;;;;;10.97;9.33;;;25.10;34.30;;;;;;5012600;28;20495;-82
2022/03/24 20:30:02;;;;;;;10.20;8.77;;;25.10;34.40;;;;;;5019324;28;20522;-82
2022/03/24 20:32:31;;;;;;;12.40;8.63;;;25.00;34.40;;;;;;5007964;28;20470;-84
2022/03/24 20:35:01;;;;;;;10.40;7.90;;;25.00;34.50;;;;;;4999379;28;20484;-83
2022/03/24 20:37:30;;;;;;;10.53;8.10;;;24.90;34.60;;;;;;4996700;28;20480;-82
2022/03/24 20:40:00;;;;;;;9.67;8.07;;;24.80;34.60;;;;;;4998097;28;20877;-83
2022/03/24 20:42:28;;;;;;;12.33;9.00;;;24.80;34.70;;;;;;4993123;28;20552;-82
2022/03/24 20:44:57;;;;;;;9.23;8.07;;;24.80;34.80;;;;;;5014683;28;20452;-82
2022/03/24 20:47:26;;;;;;;11.33;8.07;;;24.70;34.80;;;;;;5002966;28;20444;-83
2022/03/24 20:49:54;;;;;;;11.00;9.13;;;24.70;34.80;;;;;;4998050;28;20445;-81
2022/03/24 20:52:24;;;;;;;13.20;9.60;;;24.60;35.00;;;;;;4997798;28;20462;-83
2022/03/24 20:54:52;;;;;;;14.10;9.10;;;24.60;35.00;;;;;;5004474;28;20439;-83
2022/03/24 20:57:23;;;;;;;11.20;9.30;;;24.50;35.00;;;;;;5016833;28;20551;-82
2022/03/24 20:59:51;;;;;;;11.20;9.23;;;24.50;35.00;;;;;;5011405;28;20435;-82
2022/03/24 21:02:21;;;;;;;15.60;9.50;;;24.50;35.10;;;;;;5017457;28;20446;-84
2022/03/24 21:04:49;;;;;;;17.60;10.07;;;24.40;35.10;;;;;;4998673;28;20448;-84
2022/03/24 21:07:23;;;;;;;16.60;10.00;;;24.30;35.00;;;;;;5006068;28;20517;-83
2022/03/24 21:10:03;;;;;;;17.37;10.97;;;24.30;35.20;;;;;;5013622;28;20448;-83
2022/03/24 21:13:02;;;;;;;12.27;9.10;;;24.30;35.20;;;;;;5018263;28;20486;-83
2022/03/24 21:22:10;;;;;;;11.03;9.40;;;24.10;35.30;;;;;;5009001;28;20483;-83
2022/03/24 21:24:50;;;;;;;15.63;10.90;;;24.00;35.50;;;;;;5033392;28;20471;-83
2022/03/24 21:28:05;;;;;;;14.47;10.67;;;24.00;35.50;;;;;;5003032;28;20476;-83
2022/03/24 21:31:22;;;;;;;14.77;9.53;;;23.90;35.60;;;;;;5015448;28;20996;-83
2022/03/24 21:33:53;;;;;;;15.20;9.57;;;23.90;35.70;;;;;;4987262;28;20510;-85
2022/03/24 21:36:23;;;;;;;13.40;9.47;;;23.80;35.70;;;;;;5022158;28;20443;-83
2022/03/24 21:39:10;;;;;;;15.77;9.90;;;23.80;35.70;;;;;;5019924;28;20440;-83
2022/03/24 21:42:01;;;;;;;13.07;10.13;;;23.80;35.80;;;;;;5001436;28;20445;-83
2022/03/24 21:44:35;;;;;;;18.90;10.50;;;23.70;35.80;;;;;;5002264;28;20449;-84
2022/03/24 21:47:24;;;;;;;15.17;10.40;;;23.70;35.90;;;;;;5001157;28;20443;-83
2022/03/24 21:50:08;;;;;;;15.70;9.60;;;23.70;36.00;;;;;;5002574;28;20432;-83
2022/03/24 21:53:01;;;;;;;13.90;9.10;;;23.60;36.00;;;;;;4998638;28;20497;-83
2022/03/24 21:55:35;;;;;;;13.73;9.73;;;23.60;36.00;;;;;;5013418;28;20436;-84
2022/03/24 21:58:04;;;;;;;15.50;11.30;;;23.50;36.00;;;;;;5022622;28;20476;-84
2022/03/24 22:00:44;;;;;;;14.93;9.70;;;23.50;36.00;;;;;;5018899;28;20467;-83
2022/03/24 22:03:38;;;;;;;14.57;10.23;;;23.40;36.20;;;;;;5003635;28;20423;-83
2022/03/24 22:06:17;;;;;;;14.03;10.90;;;23.40;36.20;;;;;;4999812;28;20474;-83
2022/03/24 22:16:27;;;;;;;15.53;11.00;;;23.20;36.40;;;;;;5018685;28;20510;-83
2022/03/24 22:19:36;;;;;;;16.17;11.10;;;23.20;36.50;;;;;;4965563;28;20466;-84
2022/03/24 22:22:15;;;;;;;17.63;12.30;;;23.20;36.60;;;;;;4960387;29;20497;-84
2022/03/24 22:25:09;;;;;;;13.53;10.80;;;23.10;36.40;;;;;;4962146;29;20430;-83
2022/03/24 22:27:58;;;;;;;18.00;12.40;;;23.10;36.50;;;;;;4973693;28;20476;-82
2022/03/24 22:30:57;;;;;;;14.90;11.67;;;23.00;36.60;;;;;;4962159;29;20461;-83
2022/03/24 22:34:32;;;;;;;16.60;10.83;;;23.00;36.70;;;;;;4963777;29;20482;-83
2022/03/24 22:38:08;;;;;;;;;;;;;;;;;;;;;
2022/03/24 23:18:19;;;;;;;18.80;12.50;;;22.40;37.30;;;;;;5047448;28;20608;-82
2022/03/24 23:24:45;;;;;;;18.70;13.90;;;22.30;37.20;;;;;;5032674;28;20515;-83
2022/03/24 23:41:20;;;;;;;19.87;13.10;;;22.20;37.50;;;;;;5060338;28;20449;-82
2022/03/24 23:44:27;;;;;;;15.47;11.97;;;22.10;37.50;;;;;;4996456;28;20425;-82
2022/03/24 23:54:39;;;;;;;16.63;12.60;;;22.00;37.60;;;;;;4884600;29;20450;-84
